Billings, MT (59101)

7:16 AM MST on February 23, 2017 (GMT -0700)
Yellowstone RV Campground | | Change Station
Active Advisory: Winter Weather Advisory

Elev 3120 ft 45.76 °N, 108.48 °W | Updated 30 seconds ago

Overcast
Overcast
30.7 °F
Feels Like 31 °F
N
0.0
Wind Variable Wind from NNW
Gusts 0.0 mph

Today
High -- | Low -- °F
--% Chance of Precip.
Yesterday
High -- | Low -- °F
Precip. -- in
Pressure 29.89 in
Visibility 10.0 miles
Clouds Mostly Cloudy 700 ft
Overcast 2200 ft
Windchill 31 °F
Dew Point 20 °F
Humidity 65%
Rainfall 0.00 in
Snow Depth Not available.
7:02 AM 5:52 PM
Waning Crescent, 10% visible
SPECI KBIL 231407Z 06009KT 10SM BKN007 OVC022 M02/M04 A2989 RMK AO2 T10221039
Pressure 29.89 in
Visibility 10.0 miles
Clouds Mostly Cloudy 700 ft
Overcast 2200 ft
Windchill 31 °F
Dew Point 20 °F
Humidity 65%
Rainfall 0.00 in
Snow Depth Not available.
7:02 AM 5:52 PM
Waning Crescent, 10% visible
SPECI KBIL 231407Z 06009KT 10SM BKN007 OVC022 M02/M04 A2989 RMK AO2 T10221039

Get Your Daily Forecast Email!

Thanks for signing up!

Be on the lookout for a verification email in your inbox.

You'll start receiving the daily forecast at 8 AM.

×

10-Day Weather Forecast

Almanac

Astronomy

Feb. 23, 2017 Rise Set
Actual Time
Civil Twilight
Nautical Twilight
Astronomical Twilight
Moon
Length of Visible Light
Length of Day
Tomorrow will be .
, % of the Moon is Illuminated

Today's Extremes

State Highs State Lows

Community

WunderPhotos

Upload Photos

1,962,540 photos uploaded!

WunderBlog® & News

Nearby

Air Quality

  Air Quality AQ Index Pollutant
Not available.

Snow Depth

Station Depth Elevation

Earthquake Activity

City Distance Mag. Time & Date
Minimum magnitude displayed is 2.5.

Coastal Water Temperatures

Place Temperature

Stations

Nearby Weather Stations

Station Location Temp. Windchill Dew Point Humidity Wind Precip. Elev Updated Type
                   

Watches & Warnings

Winter Weather Advisory
Issued: 3:01 AM MST Feb. 23, 2017 – National Weather Service

... Winter Weather Advisory remains in effect until noon MST
Friday...

* impacts... poor travel conditions due to slick roads and limited
visibility, including portions of Interstate 90, Interstate 94,
and Highway 12. Cold and wet weather may be hazardous to Young
livestock.

* Timing... through Friday morning.

* Snow accumulation... 1 to 4 inches, greatest near the mountains.

Precautionary/preparedness actions...

A Winter Weather Advisory can be issued for a variety of winter
weather conditions such as light snow... blowing snow... sleet...
freezing rain... and extreme wind chills.